sensor_id;sensor_type;location;lat;lon;timestamp;pressure;altitude;pressure_sealevel;temperature;humidity
45285;BME280;31026;43.780;25.948;2022-10-16T00:00:51;101728.63;;;20.47;64.99
45285;BME280;31026;43.780;25.948;2022-10-16T00:03:19;101744.63;;;20.49;65.19
45285;BME280;31026;43.780;25.948;2022-10-16T00:05:50;101743.78;;;20.48;65.00
45285;BME280;31026;43.780;25.948;2022-10-16T00:08:18;101731.31;;;20.47;65.23
45285;BME280;31026;43.780;25.948;2022-10-16T00:10:46;101736.81;;;20.45;65.18
45285;BME280;31026;43.780;25.948;2022-10-16T00:13:15;101737.66;;;20.46;64.91
45285;BME280;31026;43.780;25.948;2022-10-16T00:15:45;101736.09;;;20.43;64.85
45285;BME280;31026;43.780;25.948;2022-10-16T00:18:13;101746.69;;;20.45;65.00
45285;BME280;31026;43.780;25.948;2022-10-16T00:20:42;101746.47;;;20.48;64.78
45285;BME280;31026;43.780;25.948;2022-10-16T00:23:12;101737.78;;;20.44;64.96
45285;BME280;31026;43.780;25.948;2022-10-16T00:25:41;101751.22;;;20.44;65.02
45285;BME280;31026;43.780;25.948;2022-10-16T00:28:09;101757.44;;;20.45;65.11
45285;BME280;31026;43.780;25.948;2022-10-16T00:30:37;101754.00;;;20.43;65.05
45285;BME280;31026;43.780;25.948;2022-10-16T00:33:06;101756.84;;;20.41;65.12
45285;BME280;31026;43.780;25.948;2022-10-16T00:35:34;101748.91;;;20.40;64.76
45285;BME280;31026;43.780;25.948;2022-10-16T00:38:02;101756.69;;;20.43;64.95
45285;BME280;31026;43.780;25.948;2022-10-16T00:40:33;101773.69;;;20.43;64.67
45285;BME280;31026;43.780;25.948;2022-10-16T00:43:01;101755.84;;;20.42;64.91
45285;BME280;31026;43.780;25.948;2022-10-16T00:45:30;101758.44;;;20.44;64.63
45285;BME280;31026;43.780;25.948;2022-10-16T00:47:58;101751.47;;;20.41;64.67
45285;BME280;31026;43.780;25.948;2022-10-16T00:50:29;101765.50;;;20.45;64.71
45285;BME280;31026;43.780;25.948;2022-10-16T00:52:57;101766.84;;;20.39;64.66
45285;BME280;31026;43.780;25.948;2022-10-16T00:55:26;101773.09;;;20.40;64.50
45285;BME280;31026;43.780;25.948;2022-10-16T00:57:58;101759.66;;;20.40;64.56
45285;BME280;31026;43.780;25.948;2022-10-16T01:00:27;101780.88;;;20.43;64.48
45285;BME280;31026;43.780;25.948;2022-10-16T01:02:58;101785.22;;;20.68;64.11
45285;BME280;31026;43.780;25.948;2022-10-16T01:05:28;101775.50;;;21.22;62.27
45285;BME280;31026;43.780;25.948;2022-10-16T01:08:00;101766.38;;;22.10;59.89
45285;BME280;31026;43.780;25.948;2022-10-16T01:10:34;101763.47;;;22.44;59.28
45285;BME280;31026;43.780;25.948;2022-10-16T01:13:06;101762.81;;;22.82;58.07
45285;BME280;31026;43.780;25.948;2022-10-16T01:15:36;101770.84;;;22.73;58.44
45285;BME280;31026;43.780;25.948;2022-10-16T01:18:05;101773.56;;;22.73;58.60
45285;BME280;31026;43.780;25.948;2022-10-16T01:20:37;101766.25;;;22.63;58.72
45285;BME280;31026;43.780;25.948;2022-10-16T01:23:10;101774.91;;;22.57;58.90
45285;BME280;31026;43.780;25.948;2022-10-16T01:25:49;101768.72;;;22.67;58.66
45285;BME280;31026;43.780;25.948;2022-10-16T01:28:25;101781.06;;;22.69;58.51
45285;BME280;31026;43.780;25.948;2022-10-16T01:30:56;101785.59;;;22.69;58.65
45285;BME280;31026;43.780;25.948;2022-10-16T01:33:27;101775.78;;;22.68;58.73
45285;BME280;31026;43.780;25.948;2022-10-16T01:35:58;101776.41;;;22.81;58.47
45285;BME280;31026;43.780;25.948;2022-10-16T01:38:29;101774.41;;;22.42;59.46
45285;BME280;31026;43.780;25.948;2022-10-16T01:41:00;101773.81;;;21.97;60.41
45285;BME280;31026;43.780;25.948;2022-10-16T01:43:33;101795.19;;;21.98;60.92
45285;BME280;31026;43.780;25.948;2022-10-16T01:46:03;101774.94;;;22.36;59.75
45285;BME280;31026;43.780;25.948;2022-10-16T01:48:31;101783.94;;;22.77;58.66
45285;BME280;31026;43.780;25.948;2022-10-16T01:51:01;101773.88;;;22.89;58.52
45285;BME280;31026;43.780;25.948;2022-10-16T01:53:31;101781.56;;;22.84;58.45
45285;BME280;31026;43.780;25.948;2022-10-16T01:56:00;101781.13;;;22.27;59.96
45285;BME280;31026;43.780;25.948;2022-10-16T01:58:34;101794.75;;;21.93;61.04
45285;BME280;31026;43.780;25.948;2022-10-16T02:01:05;101787.63;;;22.24;60.22
45285;BME280;31026;43.780;25.948;2022-10-16T02:03:34;101797.47;;;22.56;59.25
45285;BME280;31026;43.780;25.948;2022-10-16T02:06:06;101796.88;;;22.83;58.40
45285;BME280;31026;43.780;25.948;2022-10-16T02:08:34;101792.56;;;22.40;59.57
45285;BME280;31026;43.780;25.948;2022-10-16T02:11:04;101791.78;;;21.96;60.88
45285;BME280;31026;43.780;25.948;2022-10-16T02:13:36;101810.91;;;22.14;60.60
45285;BME280;31026;43.780;25.948;2022-10-16T02:16:05;101787.66;;;22.55;59.32
45285;BME280;31026;43.780;25.948;2022-10-16T02:18:34;101793.31;;;22.83;58.64
45285;BME280;31026;43.780;25.948;2022-10-16T02:21:04;101812.06;;;22.84;58.48
45285;BME280;31026;43.780;25.948;2022-10-16T02:23:37;101805.69;;;22.34;59.83
45285;BME280;31026;43.780;25.948;2022-10-16T02:26:09;101813.59;;;21.93;61.19
45285;BME280;31026;43.780;25.948;2022-10-16T02:28:44;101826.56;;;22.20;60.43
45285;BME280;31026;43.780;25.948;2022-10-16T02:31:15;101816.78;;;22.61;59.11
45285;BME280;31026;43.780;25.948;2022-10-16T02:33:46;101812.91;;;22.85;58.47
45285;BME280;31026;43.780;25.948;2022-10-16T02:36:14;101823.53;;;22.77;58.77
45285;BME280;31026;43.780;25.948;2022-10-16T02:38:42;101822.13;;;22.31;59.87
45285;BME280;31026;43.780;25.948;2022-10-16T02:41:11;101831.00;;;22.10;61.23
45285;BME280;31026;43.780;25.948;2022-10-16T02:43:39;101812.53;;;22.38;60.67
45285;BME280;31026;43.780;25.948;2022-10-16T02:46:10;101814.66;;;22.65;60.15
45285;BME280;31026;43.780;25.948;2022-10-16T02:48:39;101822.91;;;22.94;59.75
45285;BME280;31026;43.780;25.948;2022-10-16T02:51:07;101815.03;;;22.81;60.27
45285;BME280;31026;43.780;25.948;2022-10-16T02:53:35;101825.81;;;22.30;62.19
45285;BME280;31026;43.780;25.948;2022-10-16T02:56:03;101819.59;;;21.97;63.01
45285;BME280;31026;43.780;25.948;2022-10-16T02:58:32;101833.22;;;22.16;62.59
45285;BME280;31026;43.780;25.948;2022-10-16T03:01:00;101819.56;;;22.50;61.40
45285;BME280;31026;43.780;25.948;2022-10-16T03:03:31;101820.66;;;22.69;61.04
45285;BME280;31026;43.780;25.948;2022-10-16T03:05:59;101826.09;;;22.78;60.79
45285;BME280;31026;43.780;25.948;2022-10-16T03:08:28;101827.59;;;22.40;62.08
45285;BME280;31026;43.780;25.948;2022-10-16T03:10:56;101843.09;;;21.95;63.09
45285;BME280;31026;43.780;25.948;2022-10-16T03:13:24;101838.47;;;21.85;63.04
45285;BME280;31026;43.780;25.948;2022-10-16T03:15:53;101842.03;;;22.18;62.00
45285;BME280;31026;43.780;25.948;2022-10-16T03:18:21;101836.88;;;22.27;61.66
45285;BME280;31026;43.780;25.948;2022-10-16T03:20:52;101839.63;;;22.36;61.32
45285;BME280;31026;43.780;25.948;2022-10-16T03:23:20;101843.03;;;22.38;61.29
45285;BME280;31026;43.780;25.948;2022-10-16T03:25:48;101845.38;;;22.32;61.53
45285;BME280;31026;43.780;25.948;2022-10-16T03:28:17;101823.78;;;22.43;61.21
45285;BME280;31026;43.780;25.948;2022-10-16T03:30:45;101838.94;;;22.44;61.16
45285;BME280;31026;43.780;25.948;2022-10-16T03:33:14;101856.84;;;22.45;61.10
45285;BME280;31026;43.780;25.948;2022-10-16T03:35:42;101848.03;;;22.43;61.11
45285;BME280;31026;43.780;25.948;2022-10-16T03:38:13;101851.69;;;22.42;61.30
45285;BME280;31026;43.780;25.948;2022-10-16T03:40:41;101860.72;;;22.52;60.71
45285;BME280;31026;43.780;25.948;2022-10-16T03:43:09;101849.81;;;22.33;61.37
45285;BME280;31026;43.780;25.948;2022-10-16T03:45:38;101860.72;;;21.99;62.46
45285;BME280;31026;43.780;25.948;2022-10-16T03:48:06;101859.53;;;21.80;63.28
45285;BME280;31026;43.780;25.948;2022-10-16T03:50:34;101837.34;;;22.20;61.87
45285;BME280;31026;43.780;25.948;2022-10-16T03:53:03;101839.41;;;22.70;60.37
45285;BME280;31026;43.780;25.948;2022-10-16T03:55:34;101839.81;;;22.96;59.67
45285;BME280;31026;43.780;25.948;2022-10-16T03:58:02;101840.38;;;22.48;60.78
45285;BME280;31026;43.780;25.948;2022-10-16T04:00:30;101846.72;;;22.05;61.63
45285;BME280;31026;43.780;25.948;2022-10-16T04:02:59;101850.97;;;21.87;62.16
45285;BME280;31026;43.780;25.948;2022-10-16T04:05:27;101860.78;;;21.76;62.79
45285;BME280;31026;43.780;25.948;2022-10-16T04:07:56;101851.88;;;21.64;62.93
45285;BME280;31026;43.780;25.948;2022-10-16T04:10:25;101864.88;;;21.59;63.10
45285;BME280;31026;43.780;25.948;2022-10-16T04:12:56;101868.06;;;21.53;63.50
45285;BME280;31026;43.780;25.948;2022-10-16T04:15:25;101865.72;;;21.49;63.37
45285;BME280;31026;43.780;25.948;2022-10-16T04:17:53;101866.34;;;21.41;63.36
45285;BME280;31026;43.780;25.948;2022-10-16T04:20:21;101857.19;;;21.32;63.23
45285;BME280;31026;43.780;25.948;2022-10-16T04:22:50;101860.38;;;21.26;63.36
45285;BME280;31026;43.780;25.948;2022-10-16T04:25:18;101850.84;;;21.22;63.24
45285;BME280;31026;43.780;25.948;2022-10-16T04:27:46;101853.28;;;21.14;63.45
45285;BME280;31026;43.780;25.948;2022-10-16T04:30:17;101867.69;;;21.13;63.24
45285;BME280;31026;43.780;25.948;2022-10-16T04:32:47;101855.25;;;21.12;63.27
45285;BME280;31026;43.780;25.948;2022-10-16T04:35:16;101860.63;;;21.12;63.15
45285;BME280;31026;43.780;25.948;2022-10-16T04:37:44;101870.66;;;21.10;63.41
45285;BME280;31026;43.780;25.948;2022-10-16T04:40:12;101865.75;;;21.03;63.58
45285;BME280;31026;43.780;25.948;2022-10-16T04:42:41;101875.78;;;21.01;63.20
45285;BME280;31026;43.780;25.948;2022-10-16T04:45:09;101893.63;;;21.02;63.47
45285;BME280;31026;43.780;25.948;2022-10-16T04:47:40;101882.13;;;21.00;63.38
45285;BME280;31026;43.780;25.948;2022-10-16T04:50:09;101888.25;;;21.02;63.65
45285;BME280;31026;43.780;25.948;2022-10-16T04:52:37;101896.81;;;21.08;63.87
45285;BME280;31026;43.780;25.948;2022-10-16T04:55:06;101889.47;;;21.10;63.80
45285;BME280;31026;43.780;25.948;2022-10-16T04:57:34;101899.13;;;21.12;64.13
45285;BME280;31026;43.780;25.948;2022-10-16T05:00:03;101894.97;;;21.19;64.01
45285;BME280;31026;43.780;25.948;2022-10-16T05:02:31;101906.09;;;21.15;63.75
45285;BME280;31026;43.780;25.948;2022-10-16T05:05:02;101905.13;;;21.16;64.00
45285;BME280;31026;43.780;25.948;2022-10-16T05:07:30;101904.41;;;21.25;64.24
45285;BME280;31026;43.780;25.948;2022-10-16T05:09:59;101903.91;;;21.20;64.00
45285;BME280;31026;43.780;25.948;2022-10-16T05:12:27;101899.50;;;21.19;64.10
45285;BME280;31026;43.780;25.948;2022-10-16T05:14:55;101915.03;;;21.15;64.27
45285;BME280;31026;43.780;25.948;2022-10-16T05:17:24;101922.63;;;21.21;64.41
45285;BME280;31026;43.780;25.948;2022-10-16T05:19:52;101926.41;;;21.19;64.50
45285;BME280;31026;43.780;25.948;2022-10-16T05:22:24;101932.66;;;21.19;64.44
45285;BME280;31026;43.780;25.948;2022-10-16T05:24:53;101930.81;;;21.20;64.36
45285;BME280;31026;43.780;25.948;2022-10-16T05:27:21;101933.50;;;21.20;64.78
45285;BME280;31026;43.780;25.948;2022-10-16T05:29:49;101945.09;;;21.20;64.21
45285;BME280;31026;43.780;25.948;2022-10-16T05:32:18;101960.16;;;21.23;64.01
45285;BME280;31026;43.780;25.948;2022-10-16T05:34:46;101963.81;;;21.22;63.49
45285;BME280;31026;43.780;25.948;2022-10-16T05:37:15;101938.50;;;21.24;63.88
45285;BME280;31026;43.780;25.948;2022-10-16T05:39:45;101959.53;;;21.31;63.84
45285;BME280;31026;43.780;25.948;2022-10-16T05:42:14;101951.59;;;21.29;64.07
45285;BME280;31026;43.780;25.948;2022-10-16T05:44:42;101956.00;;;21.30;63.83
45285;BME280;31026;43.780;25.948;2022-10-16T05:47:12;101963.22;;;21.30;64.15
45285;BME280;31026;43.780;25.948;2022-10-16T05:49:40;101967.59;;;21.31;64.20
45285;BME280;31026;43.780;25.948;2022-10-16T05:52:08;101961.16;;;21.33;64.02
45285;BME280;31026;43.780;25.948;2022-10-16T05:54:37;101962.84;;;21.34;64.22
45285;BME280;31026;43.780;25.948;2022-10-16T05:57:08;101983.16;;;21.38;64.08
45285;BME280;31026;43.780;25.948;2022-10-16T05:59:36;101972.63;;;21.35;64.49
45285;BME280;31026;43.780;25.948;2022-10-16T06:02:05;101975.34;;;21.35;64.36
45285;BME280;31026;43.780;25.948;2022-10-16T06:04:33;101980.44;;;21.38;64.47
45285;BME280;31026;43.780;25.948;2022-10-16T06:07:01;101989.16;;;21.42;64.31
45285;BME280;31026;43.780;25.948;2022-10-16T06:09:31;101994.63;;;21.40;63.94
45285;BME280;31026;43.780;25.948;2022-10-16T06:11:59;101982.91;;;21.41;64.32
45285;BME280;31026;43.780;25.948;2022-10-16T06:14:30;102001.75;;;21.41;64.50
45285;BME280;31026;43.780;25.948;2022-10-16T06:16:58;101984.88;;;21.39;64.58
45285;BME280;31026;43.780;25.948;2022-10-16T06:19:26;102003.13;;;21.47;64.17
45285;BME280;31026;43.780;25.948;2022-10-16T06:21:55;101999.56;;;21.47;64.29
45285;BME280;31026;43.780;25.948;2022-10-16T06:24:23;102009.47;;;21.46;64.63
45285;BME280;31026;43.780;25.948;2022-10-16T06:26:52;101996.88;;;21.47;64.53
45285;BME280;31026;43.780;25.948;2022-10-16T06:29:20;102008.88;;;21.54;64.29
45285;BME280;31026;43.780;25.948;2022-10-16T06:31:51;102004.50;;;21.53;64.41
45285;BME280;31026;43.780;25.948;2022-10-16T06:34:19;102014.75;;;21.59;64.36
45285;BME280;31026;43.780;25.948;2022-10-16T06:36:48;102019.66;;;21.54;64.47
45285;BME280;31026;43.780;25.948;2022-10-16T06:39:16;102018.69;;;21.55;64.56
45285;BME280;31026;43.780;25.948;2022-10-16T06:41:44;102007.66;;;21.58;64.99
45285;BME280;31026;43.780;25.948;2022-10-16T06:44:13;102011.81;;;21.62;64.82
45285;BME280;31026;43.780;25.948;2022-10-16T06:46:41;102013.78;;;21.60;64.99
45285;BME280;31026;43.780;25.948;2022-10-16T06:49:12;102012.31;;;21.56;64.99
45285;BME280;31026;43.780;25.948;2022-10-16T06:51:46;102018.31;;;21.59;64.94
45285;BME280;31026;43.780;25.948;2022-10-16T06:54:14;102016.72;;;21.57;64.72
45285;BME280;31026;43.780;25.948;2022-10-16T06:56:43;102009.38;;;21.59;64.95
45285;BME280;31026;43.780;25.948;2022-10-16T06:59:11;102011.34;;;21.57;64.89
45285;BME280;31026;43.780;25.948;2022-10-16T07:01:39;102031.75;;;21.59;64.44
45285;BME280;31026;43.780;25.948;2022-10-16T07:04:08;102018.44;;;21.69;64.64
45285;BME280;31026;43.780;25.948;2022-10-16T07:06:39;102022.81;;;21.70;64.48
45285;BME280;31026;43.780;25.948;2022-10-16T07:09:08;102035.19;;;21.73;64.86
45285;BME280;31026;43.780;25.948;2022-10-16T07:11:37;102028.69;;;21.75;64.64
45285;BME280;31026;43.780;25.948;2022-10-16T07:14:09;102025.28;;;21.73;64.86
45285;BME280;31026;43.780;25.948;2022-10-16T07:16:40;102015.84;;;21.79;65.12
45285;BME280;31026;43.780;25.948;2022-10-16T07:19:08;102021.47;;;21.76;64.94
45285;BME280;31026;43.780;25.948;2022-10-16T07:21:41;102001.28;;;21.81;65.20
45285;BME280;31026;43.780;25.948;2022-10-16T07:24:11;102020.97;;;21.82;65.52
45285;BME280;31026;43.780;25.948;2022-10-16T07:26:40;102016.94;;;21.76;65.04
45285;BME280;31026;43.780;25.948;2022-10-16T07:29:11;102009.59;;;21.78;64.70
45285;BME280;31026;43.780;25.948;2022-10-16T07:31:40;102028.44;;;21.90;65.30
45285;BME280;31026;43.780;25.948;2022-10-16T07:34:09;102029.44;;;21.89;65.03
45285;BME280;31026;43.780;25.948;2022-10-16T07:36:37;102018.41;;;21.92;64.56
45285;BME280;31026;43.780;25.948;2022-10-16T07:39:08;102025.63;;;21.91;64.89
45285;BME280;31026;43.780;25.948;2022-10-16T07:41:37;102021.34;;;21.89;64.73
45285;BME280;31026;43.780;25.948;2022-10-16T07:44:05;102020.13;;;21.81;64.82
45285;BME280;31026;43.780;25.948;2022-10-16T07:46:34;102017.44;;;21.81;65.07
45285;BME280;31026;43.780;25.948;2022-10-16T07:49:03;102025.13;;;21.86;65.01
45285;BME280;31026;43.780;25.948;2022-10-16T07:51:31;102026.13;;;21.85;65.19
45285;BME280;31026;43.780;25.948;2022-10-16T07:54:00;102019.75;;;21.86;64.86
45285;BME280;31026;43.780;25.948;2022-10-16T07:56:31;102015.25;;;21.87;65.31
45285;BME280;31026;43.780;25.948;2022-10-16T07:58:59;102027.47;;;21.79;65.36
45285;BME280;31026;43.780;25.948;2022-10-16T08:01:28;102017.56;;;21.80;65.36
45285;BME280;31026;43.780;25.948;2022-10-16T08:03:56;102018.91;;;21.74;64.78
45285;BME280;31026;43.780;25.948;2022-10-16T08:06:24;102037.41;;;21.79;65.30
45285;BME280;31026;43.780;25.948;2022-10-16T08:08:53;102032.97;;;21.78;64.92
45285;BME280;31026;43.780;25.948;2022-10-16T08:11:21;102032.25;;;21.76;63.82
45285;BME280;31026;43.780;25.948;2022-10-16T08:13:52;102026.75;;;21.77;63.34
45285;BME280;31026;43.780;25.948;2022-10-16T08:16:20;102034.72;;;21.79;62.08
45285;BME280;31026;43.780;25.948;2022-10-16T08:18:49;102035.31;;;21.71;62.35
45285;BME280;31026;43.780;25.948;2022-10-16T08:21:18;102031.75;;;21.59;61.50
45285;BME280;31026;43.780;25.948;2022-10-16T08:23:48;102039.47;;;21.53;61.45
45285;BME280;31026;43.780;25.948;2022-10-16T08:26:16;102043.88;;;21.54;61.73
45285;BME280;31026;43.780;25.948;2022-10-16T08:28:45;102029.69;;;21.52;61.03
45285;BME280;31026;43.780;25.948;2022-10-16T08:31:16;102027.72;;;21.54;60.48
45285;BME280;31026;43.780;25.948;2022-10-16T08:33:44;102027.09;;;21.50;60.35
45285;BME280;31026;43.780;25.948;2022-10-16T08:36:13;102036.91;;;21.51;59.84
45285;BME280;31026;43.780;25.948;2022-10-16T08:38:42;102039.81;;;21.48;59.79
45285;BME280;31026;43.780;25.948;2022-10-16T08:41:20;102042.63;;;21.47;59.19
45285;BME280;31026;43.780;25.948;2022-10-16T08:44:04;102037.25;;;21.47;58.70
45285;BME280;31026;43.780;25.948;2022-10-16T08:46:42;102040.09;;;21.45;58.53
45285;BME280;31026;43.780;25.948;2022-10-16T08:49:15;102032.97;;;21.44;58.17
45285;BME280;31026;43.780;25.948;2022-10-16T08:51:44;102033.53;;;21.36;57.77
45285;BME280;31026;43.780;25.948;2022-10-16T08:54:19;102036.00;;;21.39;57.10
45285;BME280;31026;43.780;25.948;2022-10-16T08:56:49;102044.19;;;21.38;56.36
45285;BME280;31026;43.780;25.948;2022-10-16T08:59:17;102047.00;;;21.36;55.80
45285;BME280;31026;43.780;25.948;2022-10-16T09:01:49;102040.25;;;21.19;53.22
45285;BME280;31026;43.780;25.948;2022-10-16T09:07:01;102043.16;;;21.05;49.99
45285;BME280;31026;43.780;25.948;2022-10-16T09:12:17;102039.09;;;21.11;50.18
45285;BME280;31026;43.780;25.948;2022-10-16T09:14:50;102035.66;;;20.97;49.32
45285;BME280;31026;43.780;25.948;2022-10-16T09:17:29;102022.09;;;20.99;49.62
45285;BME280;31026;43.780;25.948;2022-10-16T09:20:03;102041.53;;;21.02;49.46
45285;BME280;31026;43.780;25.948;2022-10-16T09:22:38;102045.59;;;21.08;48.45
45285;BME280;31026;43.780;25.948;2022-10-16T09:25:10;102034.78;;;20.97;48.23
45285;BME280;31026;43.780;25.948;2022-10-16T09:27:39;102046.28;;;20.88;47.98
45285;BME280;31026;43.780;25.948;2022-10-16T09:30:12;102044.91;;;20.82;47.64
45285;BME280;31026;43.780;25.948;2022-10-16T09:32:44;102037.22;;;20.89;47.80
45285;BME280;31026;43.780;25.948;2022-10-16T09:35:14;102033.19;;;20.94;47.60
45285;BME280;31026;43.780;25.948;2022-10-16T09:37:44;102043.22;;;20.92;46.80
45285;BME280;31026;43.780;25.948;2022-10-16T09:40:23;102032.09;;;20.85;47.96
45285;BME280;31026;43.780;25.948;2022-10-16T09:42:52;102037.72;;;20.94;47.88
45285;BME280;31026;43.780;25.948;2022-10-16T09:45:23;102010.09;;;20.92;47.68
45285;BME280;31026;43.780;25.948;2022-10-16T09:47:54;102032.09;;;20.85;46.62
45285;BME280;31026;43.780;25.948;2022-10-16T09:50:23;102032.09;;;20.85;47.92
45285;BME280;31026;43.780;25.948;2022-10-16T09:53:02;102021.72;;;20.92;46.50
45285;BME280;31026;43.780;25.948;2022-10-16T09:55:31;102020.00;;;20.91;47.50
45285;BME280;31026;43.780;25.948;2022-10-16T09:57:59;102008.25;;;20.92;47.41
45285;BME280;31026;43.780;25.948;2022-10-16T10:00:28;102000.72;;;20.97;47.30
45285;BME280;31026;43.780;25.948;2022-10-16T10:03:00;101996.59;;;21.16;49.00
45285;BME280;31026;43.780;25.948;2022-10-16T10:05:28;101996.00;;;21.35;48.98
45285;BME280;31026;43.780;25.948;2022-10-16T10:07:57;102000.03;;;21.40;49.21
45285;BME280;31026;43.780;25.948;2022-10-16T10:10:28;101999.56;;;21.47;49.72
45285;BME280;31026;43.780;25.948;2022-10-16T10:12:57;102004.72;;;21.50;50.11
45285;BME280;31026;43.780;25.948;2022-10-16T10:15:32;102001.19;;;21.49;51.47
45285;BME280;31026;43.780;25.948;2022-10-16T10:18:14;102007.53;;;21.48;51.36
45285;BME280;31026;43.780;25.948;2022-10-16T10:20:44;101999.34;;;21.50;51.64
45285;BME280;31026;43.780;25.948;2022-10-16T10:23:19;102004.50;;;21.53;52.07
45285;BME280;31026;43.780;25.948;2022-10-16T10:25:49;101998.09;;;21.54;52.56
45285;BME280;31026;43.780;25.948;2022-10-16T10:28:35;102000.31;;;21.60;53.05
45285;BME280;31026;43.780;25.948;2022-10-16T10:31:09;101986.84;;;21.60;53.88
45285;BME280;31026;43.780;25.948;2022-10-16T10:33:44;101992.72;;;21.54;53.57
45285;BME280;31026;43.780;25.948;2022-10-16T10:36:22;101998.34;;;21.62;53.17
45285;BME280;31026;43.780;25.948;2022-10-16T10:38:54;101994.31;;;21.56;53.53
45285;BME280;31026;43.780;25.948;2022-10-16T10:41:32;101998.63;;;21.59;53.95
45285;BME280;31026;43.780;25.948;2022-10-16T10:44:05;101991.75;;;21.77;54.14
45285;BME280;31026;43.780;25.948;2022-10-16T10:46:39;101990.63;;;21.80;55.43
45285;BME280;31026;43.780;25.948;2022-10-16T10:49:14;101986.69;;;21.84;56.51
45285;BME280;31026;43.780;25.948;2022-10-16T10:51:48;101978.50;;;21.85;56.23
45285;BME280;31026;43.780;25.948;2022-10-16T10:54:23;101977.03;;;21.81;56.77
45285;BME280;31026;43.780;25.948;2022-10-16T10:56:57;101985.25;;;21.80;56.88
45285;BME280;31026;43.780;25.948;2022-10-16T11:02:13;101985.63;;;21.87;57.51
45285;BME280;31026;43.780;25.948;2022-10-16T11:04:53;101976.94;;;21.83;57.40
45285;BME280;31026;43.780;25.948;2022-10-16T11:07:27;101984.88;;;21.84;57.62
45285;BME280;31026;43.780;25.948;2022-10-16T11:09:57;101984.88;;;21.84;57.79
45285;BME280;31026;43.780;25.948;2022-10-16T11:12:28;101979.75;;;21.81;57.55
45285;BME280;31026;43.780;25.948;2022-10-16T11:15:00;101973.34;;;21.82;57.63
45285;BME280;31026;43.780;25.948;2022-10-16T11:17:30;101976.06;;;21.82;57.95
45285;BME280;31026;43.780;25.948;2022-10-16T11:20:03;101980.47;;;21.83;58.13
45285;BME280;31026;43.780;25.948;2022-10-16T11:22:39;101979.34;;;21.86;58.16
45285;BME280;31026;43.780;25.948;2022-10-16T11:25:13;101971.16;;;21.88;58.04
45285;BME280;31026;43.780;25.948;2022-10-16T11:27:42;101971.28;;;21.86;57.91
45285;BME280;31026;43.780;25.948;2022-10-16T11:30:14;101966.88;;;21.85;58.12
45285;BME280;31026;43.780;25.948;2022-10-16T11:32:49;101969.47;;;21.87;56.77
45285;BME280;31026;43.780;25.948;2022-10-16T11:35:24;101974.59;;;21.90;58.13
45285;BME280;31026;43.780;25.948;2022-10-16T11:37:54;101959.41;;;21.89;56.88
45285;BME280;31026;43.780;25.948;2022-10-16T11:40:26;101958.44;;;21.90;57.00
45285;BME280;31026;43.780;25.948;2022-10-16T11:42:57;101962.84;;;21.91;57.46
45285;BME280;31026;43.780;25.948;2022-10-16T11:45:29;101964.41;;;21.93;57.11
45285;BME280;31026;43.780;25.948;2022-10-16T11:48:00;101968.22;;;21.91;57.44
45285;BME280;31026;43.780;25.948;2022-10-16T11:50:34;101951.06;;;21.92;57.18
45285;BME280;31026;43.780;25.948;2022-10-16T11:53:05;101955.84;;;21.88;56.81
45285;BME280;31026;43.780;25.948;2022-10-16T11:55:39;101958.31;;;21.91;57.08
45285;BME280;31026;43.780;25.948;2022-10-16T11:58:09;101972.97;;;21.98;57.09
45285;BME280;31026;43.780;25.948;2022-10-16T12:00:43;101961.34;;;21.98;56.82
45285;BME280;31026;43.780;25.948;2022-10-16T12:03:17;101952.53;;;21.96;56.87
45285;BME280;31026;43.780;25.948;2022-10-16T12:05:55;101964.88;;;21.98;56.79
45285;BME280;31026;43.780;25.948;2022-10-16T12:08:24;101960.84;;;22.04;57.18
45285;BME280;31026;43.780;25.948;2022-10-16T12:10:53;101972.84;;;22.00;57.23
45285;BME280;31026;43.780;25.948;2022-10-16T12:13:28;101978.22;;;22.00;57.78
45285;BME280;31026;43.780;25.948;2022-10-16T12:16:04;101959.66;;;21.97;56.80
45285;BME280;31026;43.780;25.948;2022-10-16T12:18:32;101975.53;;;22.00;57.98
45285;BME280;31026;43.780;25.948;2022-10-16T12:21:03;101980.47;;;21.95;57.61
45285;BME280;31026;43.780;25.948;2022-10-16T12:23:33;101982.88;;;21.98;57.79
45285;BME280;31026;43.780;25.948;2022-10-16T12:26:04;101974.06;;;21.96;57.66
45285;BME280;31026;43.780;25.948;2022-10-16T12:28:33;101981.44;;;21.94;57.86
45285;BME280;31026;43.780;25.948;2022-10-16T12:31:02;101984.84;;;21.96;57.96
45285;BME280;31026;43.780;25.948;2022-10-16T12:33:31;101989.28;;;21.97;57.80
45285;BME280;31026;43.780;25.948;2022-10-16T12:36:04;101995.13;;;22.02;57.72
45285;BME280;31026;43.780;25.948;2022-10-16T12:38:37;101977.50;;;21.98;58.13
45285;BME280;31026;43.780;25.948;2022-10-16T12:41:07;101968.69;;;21.96;57.77
45285;BME280;31026;43.780;25.948;2022-10-16T12:43:37;101978.34;;;21.98;57.95
45285;BME280;31026;43.780;25.948;2022-10-16T12:46:21;101981.19;;;21.97;57.91
45285;BME280;31026;43.780;25.948;2022-10-16T12:48:51;101974.34;;;21.93;58.22
45285;BME280;31026;43.780;25.948;2022-10-16T12:51:25;101986.56;;;21.97;59.31
45285;BME280;31026;43.780;25.948;2022-10-16T12:54:00;101974.34;;;21.81;59.70
45285;BME280;31026;43.780;25.948;2022-10-16T12:56:32;101977.28;;;21.78;59.82
45285;BME280;31026;43.780;25.948;2022-10-16T12:59:06;101972.16;;;21.75;59.85
45285;BME280;31026;43.780;25.948;2022-10-16T13:01:41;101977.66;;;21.85;59.72
45285;BME280;31026;43.780;25.948;2022-10-16T13:06:57;101986.59;;;21.85;59.63